SAS1881 ESSA-LDPL
Flight info
| Callsign | SAS1881 |
|---|---|
| Flight time | 2h 21m |
| Altitude | 38000 |
| Route | TRS DCT RUMAR DCT XERBI DCT RASAN DCT VENEN DCT NIPEL/N0440F370 DCT GIRDA |
| Aircraft | A320/M-SDE3FGHIRWY/LB1 |
Departure
| Time | 2026-05-07 09:00 |
|---|---|
| Airport | Stockholm-Arlanda Airport (ESSA) |
Arrival
| Time | 2026-05-07 11:21 |
|---|---|
| Airport | Pula Airport (LDPL) |
| Time | Latitude | Longitude | Altitude | Speed | Heading |
|---|---|---|---|---|---|
| 2026-05-07 08:20 | 59.65399 | 17.93857 | 117 ft | 0 kts | 256° |
| 2026-05-07 08:44 | 59.65403 | 17.93897 | 113 ft | 4 kts | 272° |
| 2026-05-07 08:44 | 59.65396 | 17.93944 | 113 ft | 4 kts | 320° |
| 2026-05-07 08:45 | 59.65387 | 17.93957 | 113 ft | 0 kts | 346° |
| 2026-05-07 08:47 | 59.65393 | 17.93954 | 113 ft | 4 kts | 346° |
| 2026-05-07 08:47 | 59.65440 | 17.93930 | 114 ft | 8 kts | 346° |
| 2026-05-07 08:47 | 59.65494 | 17.93903 | 115 ft | 8 kts | 346° |
| 2026-05-07 08:48 | 59.65549 | 17.93875 | 114 ft | 8 kts | 345° |
| 2026-05-07 08:48 | 59.65590 | 17.93810 | 117 ft | 8 kts | 283° |
| 2026-05-07 08:48 | 59.65581 | 17.93694 | 115 ft | 9 kts | 255° |
| 2026-05-07 08:48 | 59.65558 | 17.93513 | 115 ft | 17 kts | 257° |
| 2026-05-07 08:49 | 59.65529 | 17.93286 | 116 ft | 18 kts | 256° |
| 2026-05-07 08:49 | 59.65498 | 17.93046 | 116 ft | 18 kts | 254° |
| 2026-05-07 08:49 | 59.65456 | 17.92798 | 117 ft | 20 kts | 250° |
| 2026-05-07 08:49 | 59.65471 | 17.92592 | 116 ft | 17 kts | 321° |
| 2026-05-07 08:50 | 59.65589 | 17.92502 | 118 ft | 19 kts | 344° |
| 2026-05-07 08:50 | 59.65727 | 17.92435 | 117 ft | 21 kts | 351° |
| 2026-05-07 08:50 | 59.65881 | 17.92459 | 122 ft | 23 kts | 8° |
| 2026-05-07 08:50 | 59.66014 | 17.92507 | 121 ft | 19 kts | 11° |
| 2026-05-07 08:51 | 59.66149 | 17.92562 | 119 ft | 21 kts | 11° |
| 2026-05-07 08:51 | 59.66273 | 17.92616 | 124 ft | 16 kts | 13° |
| 2026-05-07 08:51 | 59.66380 | 17.92652 | 121 ft | 16 kts | 7° |
| 2026-05-07 08:51 | 59.66424 | 17.92661 | 125 ft | 5 kts | 5° |
| 2026-05-07 08:52 | 59.66465 | 17.92655 | 123 ft | 3 kts | 347° |
| 2026-05-07 08:52 | 59.66471 | 17.92651 | 125 ft | 0 kts | 345° |
| 2026-05-07 08:56 | 59.66480 | 17.92646 | 122 ft | 2 kts | 343° |
| 2026-05-07 08:56 | 59.66501 | 17.92631 | 123 ft | 4 kts | 338° |
| 2026-05-07 08:56 | 59.66531 | 17.92603 | 123 ft | 6 kts | 335° |
| 2026-05-07 08:56 | 59.66544 | 17.92593 | 125 ft | 0 kts | 339° |
| 2026-05-07 08:57 | 59.66552 | 17.92587 | 125 ft | 3 kts | 339° |
| 2026-05-07 08:57 | 59.66602 | 17.92541 | 126 ft | 10 kts | 325° |
| 2026-05-07 08:57 | 59.66605 | 17.92403 | 123 ft | 13 kts | 229° |
| 2026-05-07 08:57 | 59.66539 | 17.92348 | 120 ft | 6 kts | 190° |
| 2026-05-07 08:58 | 59.66529 | 17.92342 | 122 ft | 0 kts | 196° |
| 2026-05-07 08:59 | 59.66523 | 17.92338 | 122 ft | 7 kts | 195° |
| 2026-05-07 08:59 | 59.66233 | 17.92227 | 123 ft | 77 kts | 191° |
| 2026-05-07 08:59 | 59.65511 | 17.91963 | 121 ft | 131 kts | 190° |
| 2026-05-07 09:00 | 59.64491 | 17.91605 | 252 ft | 161 kts | 190° |
| 2026-05-07 09:00 | 59.63337 | 17.91175 | 712 ft | 170 kts | 191° |
| 2026-05-07 09:00 | 59.62156 | 17.90685 | 1310 ft | 181 kts | 192° |
| 2026-05-07 09:00 | 59.60847 | 17.90127 | 1642 ft | 201 kts | 192° |
| 2026-05-07 09:01 | 59.59441 | 17.89522 | 2225 ft | 212 kts | 192° |
| 2026-05-07 09:01 | 59.57944 | 17.88882 | 2824 ft | 230 kts | 192° |
| 2026-05-07 09:01 | 59.56331 | 17.88124 | 3400 ft | 247 kts | 196° |
| 2026-05-07 09:01 | 59.54650 | 17.87145 | 4169 ft | 257 kts | 198° |
| 2026-05-07 09:02 | 59.52930 | 17.86076 | 5067 ft | 261 kts | 198° |
| 2026-05-07 09:02 | 59.51183 | 17.84977 | 5966 ft | 266 kts | 199° |
| 2026-05-07 09:02 | 59.49402 | 17.83862 | 6901 ft | 271 kts | 199° |
| 2026-05-07 09:02 | 59.47600 | 17.82742 | 7803 ft | 273 kts | 199° |
| 2026-05-07 09:03 | 59.45778 | 17.81619 | 8713 ft | 276 kts | 199° |
| 2026-05-07 09:03 | 59.43938 | 17.80490 | 9628 ft | 278 kts | 200° |
| 2026-05-07 09:03 | 59.42079 | 17.79349 | 10401 ft | 284 kts | 201° |
| 2026-05-07 09:03 | 59.40119 | 17.78138 | 10668 ft | 307 kts | 200° |
| 2026-05-07 09:04 | 59.38035 | 17.76853 | 11162 ft | 318 kts | 200° |
| 2026-05-07 09:04 | 59.35907 | 17.75550 | 11884 ft | 323 kts | 201° |
| 2026-05-07 09:04 | 59.33742 | 17.74282 | 12630 ft | 326 kts | 199° |
| 2026-05-07 09:04 | 59.31525 | 17.73196 | 13379 ft | 330 kts | 197° |
| 2026-05-07 09:05 | 59.29273 | 17.72222 | 14093 ft | 334 kts | 196° |
| 2026-05-07 09:05 | 59.26991 | 17.71284 | 14741 ft | 337 kts | 196° |
| 2026-05-07 09:05 | 59.24683 | 17.70340 | 15377 ft | 340 kts | 196° |
| 2026-05-07 09:05 | 59.22365 | 17.69376 | 16006 ft | 342 kts | 196° |
| 2026-05-07 09:06 | 59.20022 | 17.68385 | 16640 ft | 345 kts | 197° |
| 2026-05-07 09:06 | 59.17667 | 17.67376 | 17277 ft | 348 kts | 197° |
| 2026-05-07 09:06 | 59.15293 | 17.66351 | 17907 ft | 351 kts | 197° |
| 2026-05-07 09:06 | 59.12898 | 17.65310 | 18515 ft | 354 kts | 197° |
| 2026-05-07 09:07 | 59.10483 | 17.64262 | 19085 ft | 357 kts | 197° |
| 2026-05-07 09:07 | 59.08083 | 17.63221 | 19676 ft | 359 kts | 197° |
| 2026-05-07 09:07 | 59.05604 | 17.62145 | 20280 ft | 361 kts | 197° |
| 2026-05-07 09:07 | 59.03175 | 17.61094 | 20871 ft | 364 kts | 197° |
| 2026-05-07 09:08 | 59.00697 | 17.60030 | 21444 ft | 366 kts | 197° |
| 2026-05-07 09:08 | 58.98203 | 17.58958 | 22012 ft | 369 kts | 198° |
| 2026-05-07 09:08 | 58.95691 | 17.57878 | 22592 ft | 371 kts | 198° |
| 2026-05-07 09:08 | 58.93165 | 17.56794 | 23144 ft | 373 kts | 198° |
| 2026-05-07 09:09 | 58.90617 | 17.55703 | 23695 ft | 376 kts | 198° |
| 2026-05-07 09:09 | 58.88055 | 17.54613 | 24149 ft | 378 kts | 198° |
| 2026-05-07 09:09 | 58.85478 | 17.53521 | 24600 ft | 380 kts | 198° |
| 2026-05-07 09:09 | 58.82889 | 17.52421 | 25040 ft | 382 kts | 198° |
| 2026-05-07 09:10 | 58.80287 | 17.51318 | 25471 ft | 384 kts | 198° |
| 2026-05-07 09:10 | 58.77672 | 17.50213 | 25899 ft | 386 kts | 198° |
| 2026-05-07 09:10 | 58.75045 | 17.49100 | 26042 ft | 387 kts | 198° |
| 2026-05-07 09:10 | 58.72419 | 17.47990 | 26068 ft | 386 kts | 198° |
| 2026-05-07 09:11 | 58.69795 | 17.46885 | 26069 ft | 386 kts | 198° |
| 2026-05-07 09:11 | 58.67172 | 17.45779 | 26070 ft | 386 kts | 198° |
| 2026-05-07 09:11 | 58.64544 | 17.44668 | 26073 ft | 386 kts | 198° |
| 2026-05-07 09:11 | 58.61916 | 17.43560 | 26070 ft | 386 kts | 198° |
| 2026-05-07 09:12 | 58.59288 | 17.42458 | 26073 ft | 387 kts | 197° |
| 2026-05-07 09:12 | 58.56665 | 17.41360 | 26073 ft | 387 kts | 197° |
| 2026-05-07 09:12 | 58.54032 | 17.40257 | 26076 ft | 387 kts | 197° |
| 2026-05-07 09:12 | 58.51405 | 17.39162 | 26073 ft | 387 kts | 197° |
| 2026-05-07 09:13 | 58.49660 | 17.38437 | 26076 ft | 387 kts | 197° |
| 2026-05-07 09:13 | 58.47034 | 17.37349 | 26078 ft | 387 kts | 197° |
| 2026-05-07 09:13 | 58.44405 | 17.36263 | 26079 ft | 387 kts | 197° |
| 2026-05-07 09:13 | 58.41772 | 17.35173 | 26080 ft | 387 kts | 197° |
| 2026-05-07 09:14 | 58.39141 | 17.34077 | 26078 ft | 387 kts | 197° |
| 2026-05-07 09:14 | 58.36512 | 17.32982 | 26081 ft | 387 kts | 197° |
| 2026-05-07 09:14 | 58.33882 | 17.31890 | 26081 ft | 387 kts | 197° |
| 2026-05-07 09:14 | 58.31252 | 17.30799 | 26077 ft | 387 kts | 197° |
| 2026-05-07 09:15 | 58.28609 | 17.29705 | 26400 ft | 389 kts | 197° |
| 2026-05-07 09:15 | 58.25958 | 17.28614 | 26856 ft | 391 kts | 197° |
| 2026-05-07 09:15 | 58.23294 | 17.27519 | 27272 ft | 393 kts | 197° |
| 2026-05-07 09:15 | 58.20616 | 17.26419 | 27682 ft | 394 kts | 197° |
| 2026-05-07 09:16 | 58.17928 | 17.25319 | 28076 ft | 396 kts | 197° |
| 2026-05-07 09:16 | 58.15226 | 17.24223 | 28481 ft | 398 kts | 197° |
| 2026-05-07 09:16 | 58.12513 | 17.23117 | 28865 ft | 400 kts | 197° |
| 2026-05-07 09:16 | 58.09784 | 17.21999 | 29238 ft | 402 kts | 197° |
| 2026-05-07 09:17 | 58.07047 | 17.20878 | 29628 ft | 404 kts | 197° |
| 2026-05-07 09:17 | 58.04294 | 17.19753 | 30005 ft | 406 kts | 197° |
| 2026-05-07 09:17 | 58.01527 | 17.18621 | 30340 ft | 408 kts | 197° |
| 2026-05-07 09:17 | 57.98748 | 17.17491 | 30641 ft | 410 kts | 197° |
| 2026-05-07 09:18 | 57.95959 | 17.16358 | 30943 ft | 412 kts | 197° |
| 2026-05-07 09:18 | 57.93152 | 17.15227 | 31299 ft | 412 kts | 197° |
| 2026-05-07 09:18 | 57.90356 | 17.14104 | 31731 ft | 411 kts | 197° |
| 2026-05-07 09:18 | 57.87561 | 17.12983 | 32169 ft | 409 kts | 197° |
| 2026-05-07 09:19 | 57.84780 | 17.11866 | 32599 ft | 409 kts | 197° |
| 2026-05-07 09:19 | 57.82003 | 17.10753 | 33024 ft | 408 kts | 197° |
| 2026-05-07 09:19 | 57.79234 | 17.09646 | 33446 ft | 407 kts | 197° |
| 2026-05-07 09:19 | 57.76466 | 17.08540 | 33870 ft | 406 kts | 197° |
| 2026-05-07 09:20 | 57.73701 | 17.07435 | 34245 ft | 406 kts | 197° |
| 2026-05-07 09:20 | 57.70939 | 17.06336 | 34546 ft | 406 kts | 197° |
| 2026-05-07 09:20 | 57.68177 | 17.05234 | 34837 ft | 407 kts | 197° |
| 2026-05-07 09:20 | 57.65405 | 17.04130 | 35114 ft | 407 kts | 197° |
| 2026-05-07 09:21 | 57.62631 | 17.03027 | 35385 ft | 408 kts | 197° |
| 2026-05-07 09:21 | 57.59857 | 17.01923 | 35649 ft | 408 kts | 197° |
| 2026-05-07 09:21 | 57.57075 | 17.00821 | 35914 ft | 409 kts | 197° |
| 2026-05-07 09:21 | 57.54286 | 16.99722 | 36172 ft | 410 kts | 196° |
| 2026-05-07 09:22 | 57.51495 | 16.98622 | 36415 ft | 410 kts | 196° |
| 2026-05-07 09:22 | 57.48700 | 16.97522 | 36661 ft | 411 kts | 196° |
| 2026-05-07 09:22 | 57.45904 | 16.96425 | 36907 ft | 411 kts | 196° |
| 2026-05-07 09:22 | 57.43098 | 16.95327 | 37137 ft | 412 kts | 196° |
| 2026-05-07 09:23 | 57.40291 | 16.94231 | 37368 ft | 412 kts | 196° |
| 2026-05-07 09:23 | 57.37488 | 16.93135 | 37601 ft | 413 kts | 196° |
| 2026-05-07 09:23 | 57.34677 | 16.92035 | 37820 ft | 413 kts | 196° |
| 2026-05-07 09:23 | 57.31858 | 16.90929 | 38022 ft | 414 kts | 196° |
| 2026-05-07 09:24 | 57.26196 | 16.88719 | 38072 ft | 417 kts | 196° |
| 2026-05-07 09:24 | 57.20516 | 16.86514 | 38073 ft | 417 kts | 195° |
| 2026-05-07 09:25 | 57.14833 | 16.84323 | 38071 ft | 417 kts | 195° |
| 2026-05-07 09:25 | 57.09146 | 16.82126 | 38075 ft | 417 kts | 195° |
| 2026-05-07 09:26 | 57.03460 | 16.79933 | 38073 ft | 418 kts | 195° |
| 2026-05-07 09:26 | 56.97775 | 16.77755 | 38073 ft | 418 kts | 195° |
| 2026-05-07 09:27 | 56.92081 | 16.75581 | 38072 ft | 418 kts | 195° |
| 2026-05-07 09:28 | 56.83521 | 16.72315 | 38065 ft | 424 kts | 195° |
| 2026-05-07 09:28 | 56.77679 | 16.70096 | 38065 ft | 433 kts | 195° |
| 2026-05-07 09:29 | 56.71758 | 16.67861 | 38061 ft | 436 kts | 195° |
| 2026-05-07 09:29 | 56.65817 | 16.65625 | 38059 ft | 436 kts | 195° |
| 2026-05-07 09:30 | 56.59872 | 16.63397 | 38061 ft | 436 kts | 195° |
| 2026-05-07 09:30 | 56.53936 | 16.61177 | 38063 ft | 436 kts | 195° |
| 2026-05-07 09:31 | 56.47984 | 16.58960 | 38069 ft | 436 kts | 195° |
| 2026-05-07 09:31 | 56.42038 | 16.56748 | 38072 ft | 437 kts | 194° |
| 2026-05-07 09:32 | 56.36089 | 16.54544 | 38076 ft | 437 kts | 194° |
| 2026-05-07 09:32 | 56.30130 | 16.52343 | 38072 ft | 437 kts | 194° |
| 2026-05-07 09:33 | 56.24176 | 16.50147 | 38078 ft | 437 kts | 194° |
| 2026-05-07 09:33 | 56.18222 | 16.47959 | 38078 ft | 437 kts | 194° |
| 2026-05-07 09:34 | 56.12259 | 16.45784 | 38079 ft | 437 kts | 194° |
| 2026-05-07 09:34 | 56.06301 | 16.43620 | 38080 ft | 437 kts | 194° |
| 2026-05-07 09:35 | 56.00342 | 16.41435 | 38080 ft | 437 kts | 194° |
| 2026-05-07 09:35 | 55.94385 | 16.39263 | 38081 ft | 437 kts | 194° |
| 2026-05-07 09:36 | 55.88423 | 16.37111 | 38068 ft | 437 kts | 194° |
| 2026-05-07 09:36 | 55.82464 | 16.34967 | 38083 ft | 437 kts | 194° |
| 2026-05-07 09:37 | 55.76509 | 16.32833 | 38075 ft | 437 kts | 194° |
| 2026-05-07 09:37 | 55.70554 | 16.30692 | 38074 ft | 437 kts | 194° |
| 2026-05-07 09:38 | 55.64594 | 16.28555 | 38082 ft | 437 kts | 194° |
| 2026-05-07 09:38 | 55.58640 | 16.26443 | 38084 ft | 436 kts | 194° |
| 2026-05-07 09:39 | 55.52685 | 16.24330 | 38081 ft | 436 kts | 194° |
| 2026-05-07 09:39 | 55.46737 | 16.22229 | 38080 ft | 436 kts | 194° |
| 2026-05-07 09:40 | 55.40781 | 16.20140 | 38080 ft | 436 kts | 194° |
| 2026-05-07 09:40 | 55.34831 | 16.18056 | 38082 ft | 436 kts | 194° |
| 2026-05-07 09:41 | 55.28881 | 16.15960 | 38080 ft | 436 kts | 194° |
| 2026-05-07 09:41 | 55.22939 | 16.13874 | 38075 ft | 436 kts | 194° |
| 2026-05-07 09:42 | 55.16986 | 16.11810 | 38076 ft | 436 kts | 193° |
| 2026-05-07 09:42 | 55.11030 | 16.09749 | 38080 ft | 436 kts | 193° |
| 2026-05-07 09:43 | 55.05080 | 16.07679 | 38080 ft | 436 kts | 193° |
| 2026-05-07 09:43 | 54.99092 | 16.05921 | 38076 ft | 437 kts | 190° |
| 2026-05-07 09:44 | 54.93046 | 16.04753 | 38078 ft | 437 kts | 188° |
| 2026-05-07 09:44 | 54.87000 | 16.03667 | 38074 ft | 437 kts | 188° |
| 2026-05-07 09:45 | 54.80963 | 16.02462 | 38077 ft | 437 kts | 189° |
| 2026-05-07 09:45 | 54.74936 | 16.01187 | 38073 ft | 437 kts | 189° |
| 2026-05-07 09:46 | 54.68897 | 15.99920 | 38071 ft | 436 kts | 189° |
| 2026-05-07 09:46 | 54.62873 | 15.98681 | 38073 ft | 436 kts | 189° |
| 2026-05-07 09:47 | 54.56839 | 15.97447 | 38074 ft | 436 kts | 189° |
| 2026-05-07 09:47 | 54.50812 | 15.96216 | 38066 ft | 436 kts | 189° |
| 2026-05-07 09:48 | 54.44786 | 15.94981 | 38066 ft | 436 kts | 189° |
| 2026-05-07 09:48 | 54.38765 | 15.93747 | 38065 ft | 436 kts | 189° |
| 2026-05-07 09:49 | 54.32734 | 15.92531 | 38060 ft | 436 kts | 189° |
| 2026-05-07 09:49 | 54.26704 | 15.91323 | 38060 ft | 436 kts | 188° |
| 2026-05-07 09:50 | 54.20675 | 15.90107 | 38059 ft | 436 kts | 188° |
| 2026-05-07 09:50 | 54.14658 | 15.88891 | 38054 ft | 436 kts | 189° |
| 2026-05-07 09:51 | 54.08634 | 15.87683 | 38052 ft | 436 kts | 188° |
| 2026-05-07 09:51 | 54.02608 | 15.86484 | 38053 ft | 436 kts | 188° |
| 2026-05-07 09:52 | 53.96587 | 15.85288 | 38054 ft | 435 kts | 188° |
| 2026-05-07 09:52 | 53.90573 | 15.84084 | 38051 ft | 435 kts | 188° |
| 2026-05-07 09:53 | 53.84566 | 15.82885 | 38045 ft | 434 kts | 188° |
| 2026-05-07 09:53 | 53.79581 | 15.81902 | 38049 ft | 434 kts | 188° |
| 2026-05-07 09:54 | 53.73587 | 15.80732 | 38046 ft | 433 kts | 188° |
| 2026-05-07 09:54 | 53.67603 | 15.79559 | 38047 ft | 433 kts | 188° |
| 2026-05-07 09:55 | 53.61625 | 15.78392 | 38041 ft | 432 kts | 188° |
| 2026-05-07 09:55 | 53.55664 | 15.77226 | 38045 ft | 432 kts | 188° |
| 2026-05-07 09:56 | 53.49698 | 15.76055 | 38034 ft | 431 kts | 188° |
| 2026-05-07 09:56 | 53.43741 | 15.74887 | 38035 ft | 431 kts | 188° |
| 2026-05-07 09:57 | 53.37773 | 15.73739 | 38031 ft | 431 kts | 188° |
| 2026-05-07 09:57 | 53.31816 | 15.72593 | 38034 ft | 431 kts | 188° |
| 2026-05-07 09:58 | 53.25853 | 15.71439 | 38030 ft | 431 kts | 188° |
| 2026-05-07 09:58 | 53.19900 | 15.70294 | 38031 ft | 431 kts | 188° |
| 2026-05-07 09:59 | 53.13935 | 15.69146 | 38031 ft | 431 kts | 188° |
| 2026-05-07 09:59 | 53.07978 | 15.68021 | 38032 ft | 431 kts | 187° |
| 2026-05-07 10:00 | 53.02019 | 15.66864 | 38031 ft | 431 kts | 189° |
| 2026-05-07 10:00 | 52.96115 | 15.65224 | 38031 ft | 430 kts | 192° |
| 2026-05-07 10:01 | 52.90236 | 15.63314 | 38023 ft | 430 kts | 192° |
| 2026-05-07 10:01 | 52.84345 | 15.61467 | 38020 ft | 431 kts | 191° |
| 2026-05-07 10:02 | 52.78481 | 15.59731 | 38019 ft | 431 kts | 191° |
| 2026-05-07 10:02 | 52.72568 | 15.57996 | 38016 ft | 432 kts | 191° |
| 2026-05-07 10:03 | 52.66643 | 15.56259 | 38016 ft | 433 kts | 191° |
| 2026-05-07 10:03 | 52.60716 | 15.54529 | 38008 ft | 434 kts | 191° |
| 2026-05-07 10:04 | 52.54762 | 15.52799 | 38005 ft | 435 kts | 191° |
| 2026-05-07 10:04 | 52.48800 | 15.51052 | 38002 ft | 436 kts | 191° |
| 2026-05-07 10:05 | 52.42825 | 15.49307 | 38003 ft | 437 kts | 191° |
| 2026-05-07 10:05 | 52.36843 | 15.47573 | 38006 ft | 437 kts | 191° |
| 2026-05-07 10:06 | 52.30853 | 15.45832 | 38013 ft | 437 kts | 191° |
| 2026-05-07 10:06 | 52.24864 | 15.44105 | 38020 ft | 437 kts | 191° |
| 2026-05-07 10:07 | 52.18871 | 15.42390 | 38031 ft | 437 kts | 191° |
| 2026-05-07 10:07 | 52.12890 | 15.40667 | 38026 ft | 436 kts | 191° |
| 2026-05-07 10:08 | 52.06912 | 15.38948 | 38016 ft | 436 kts | 191° |
| 2026-05-07 10:08 | 52.00948 | 15.37239 | 38023 ft | 435 kts | 191° |
| 2026-05-07 10:09 | 51.94999 | 15.35541 | 38014 ft | 434 kts | 191° |
| 2026-05-07 10:09 | 51.89064 | 15.33869 | 38018 ft | 433 kts | 191° |
| 2026-05-07 10:10 | 51.83136 | 15.32195 | 38009 ft | 431 kts | 191° |
| 2026-05-07 10:10 | 51.77229 | 15.30514 | 38002 ft | 431 kts | 191° |
| 2026-05-07 10:11 | 51.71317 | 15.28846 | 37999 ft | 431 kts | 191° |
| 2026-05-07 10:11 | 51.65409 | 15.27189 | 38005 ft | 431 kts | 191° |
| 2026-05-07 10:12 | 51.59501 | 15.25540 | 38000 ft | 431 kts | 191° |
| 2026-05-07 10:12 | 51.53590 | 15.23890 | 37999 ft | 431 kts | 191° |
| 2026-05-07 10:13 | 51.47678 | 15.22236 | 37995 ft | 431 kts | 191° |
| 2026-05-07 10:13 | 51.41770 | 15.20586 | 37988 ft | 431 kts | 191° |
| 2026-05-07 10:14 | 51.35851 | 15.18944 | 37991 ft | 432 kts | 191° |
| 2026-05-07 10:14 | 51.29933 | 15.17315 | 37980 ft | 432 kts | 191° |
| 2026-05-07 10:15 | 51.24002 | 15.15678 | 37980 ft | 432 kts | 191° |
| 2026-05-07 10:15 | 51.18074 | 15.14049 | 37979 ft | 433 kts | 191° |
| 2026-05-07 10:16 | 51.12135 | 15.12411 | 37972 ft | 433 kts | 191° |
| 2026-05-07 10:16 | 51.06187 | 15.10794 | 37973 ft | 434 kts | 191° |
| 2026-05-07 10:17 | 51.00237 | 15.09180 | 37969 ft | 434 kts | 191° |
| 2026-05-07 10:17 | 50.94265 | 15.07712 | 37959 ft | 434 kts | 190° |
| 2026-05-07 10:18 | 50.88277 | 15.06342 | 37956 ft | 435 kts | 190° |
| 2026-05-07 10:18 | 50.82295 | 15.04957 | 37955 ft | 435 kts | 190° |
| 2026-05-07 10:19 | 50.76311 | 15.03547 | 37950 ft | 435 kts | 190° |
| 2026-05-07 10:19 | 50.70334 | 15.02125 | 37946 ft | 434 kts | 190° |
| 2026-05-07 10:20 | 50.64353 | 15.00717 | 37942 ft | 434 kts | 190° |
| 2026-05-07 10:20 | 50.58378 | 14.99330 | 37945 ft | 434 kts | 190° |
| 2026-05-07 10:21 | 50.52404 | 14.97942 | 37941 ft | 434 kts | 190° |
| 2026-05-07 10:21 | 50.46436 | 14.96547 | 37935 ft | 434 kts | 191° |
| 2026-05-07 10:22 | 50.40465 | 14.95156 | 37936 ft | 434 kts | 191° |
| 2026-05-07 10:22 | 50.34495 | 14.93783 | 37941 ft | 434 kts | 190° |
| 2026-05-07 10:23 | 50.28522 | 14.92415 | 37949 ft | 434 kts | 190° |
| 2026-05-07 10:23 | 50.22550 | 14.91036 | 37952 ft | 434 kts | 190° |
| 2026-05-07 10:24 | 50.16579 | 14.89654 | 37953 ft | 434 kts | 190° |
| 2026-05-07 10:24 | 50.10603 | 14.88286 | 37944 ft | 434 kts | 190° |
| 2026-05-07 10:25 | 50.04636 | 14.86921 | 37949 ft | 434 kts | 190° |
| 2026-05-07 10:25 | 49.98665 | 14.85559 | 37951 ft | 433 kts | 191° |
| 2026-05-07 10:26 | 49.92699 | 14.84203 | 37948 ft | 433 kts | 191° |
| 2026-05-07 10:26 | 49.86735 | 14.82844 | 37958 ft | 433 kts | 191° |
| 2026-05-07 10:27 | 49.80772 | 14.81493 | 37960 ft | 433 kts | 191° |
| 2026-05-07 10:27 | 49.74808 | 14.80146 | 37962 ft | 433 kts | 191° |
| 2026-05-07 10:28 | 49.68849 | 14.78799 | 37964 ft | 433 kts | 191° |
| 2026-05-07 10:28 | 49.62895 | 14.77461 | 37968 ft | 432 kts | 191° |
| 2026-05-07 10:29 | 49.56937 | 14.76125 | 37971 ft | 432 kts | 191° |
| 2026-05-07 10:29 | 49.50990 | 14.74795 | 37979 ft | 432 kts | 191° |
| 2026-05-07 10:30 | 49.42065 | 14.72812 | 37979 ft | 432 kts | 191° |
| 2026-05-07 10:30 | 49.36124 | 14.71489 | 37982 ft | 431 kts | 191° |
| 2026-05-07 10:31 | 49.30187 | 14.70166 | 37989 ft | 431 kts | 191° |
| 2026-05-07 10:31 | 49.24249 | 14.68857 | 37989 ft | 431 kts | 191° |
| 2026-05-07 10:32 | 49.18317 | 14.67558 | 37989 ft | 431 kts | 191° |
| 2026-05-07 10:32 | 49.12388 | 14.66258 | 37987 ft | 430 kts | 191° |
| 2026-05-07 10:33 | 49.06464 | 14.64950 | 37993 ft | 430 kts | 191° |
| 2026-05-07 10:33 | 49.00549 | 14.63652 | 37996 ft | 430 kts | 191° |
| 2026-05-07 10:34 | 48.94638 | 14.62356 | 38002 ft | 429 kts | 191° |
| 2026-05-07 10:34 | 48.88720 | 14.61074 | 37996 ft | 429 kts | 191° |
| 2026-05-07 10:35 | 48.82808 | 14.59799 | 38004 ft | 429 kts | 191° |
| 2026-05-07 10:35 | 48.76903 | 14.58521 | 38001 ft | 429 kts | 191° |
| 2026-05-07 10:36 | 48.71992 | 14.57455 | 38007 ft | 428 kts | 191° |
| 2026-05-07 10:36 | 48.66090 | 14.56169 | 38004 ft | 428 kts | 191° |
| 2026-05-07 10:37 | 48.60196 | 14.54898 | 38010 ft | 428 kts | 191° |
| 2026-05-07 10:37 | 48.54304 | 14.53610 | 38015 ft | 428 kts | 192° |
| 2026-05-07 10:38 | 48.48440 | 14.52126 | 38017 ft | 427 kts | 193° |
| 2026-05-07 10:38 | 48.42593 | 14.50575 | 38019 ft | 427 kts | 193° |
| 2026-05-07 10:39 | 48.36738 | 14.49060 | 38023 ft | 427 kts | 192° |
| 2026-05-07 10:39 | 48.30876 | 14.47591 | 38019 ft | 427 kts | 192° |
| 2026-05-07 10:40 | 48.25013 | 14.46121 | 38018 ft | 427 kts | 192° |
| 2026-05-07 10:40 | 48.19151 | 14.44646 | 38015 ft | 427 kts | 192° |
| 2026-05-07 10:41 | 48.13285 | 14.43170 | 38018 ft | 428 kts | 192° |
| 2026-05-07 10:41 | 48.07416 | 14.41697 | 38017 ft | 428 kts | 192° |
| 2026-05-07 10:42 | 48.01540 | 14.40231 | 38014 ft | 428 kts | 192° |
| 2026-05-07 10:42 | 47.95657 | 14.38767 | 38015 ft | 429 kts | 192° |
| 2026-05-07 10:43 | 47.89773 | 14.37309 | 38015 ft | 429 kts | 192° |
| 2026-05-07 10:43 | 47.83970 | 14.35869 | 38015 ft | 429 kts | 192° |
| 2026-05-07 10:44 | 47.78089 | 14.34405 | 38028 ft | 429 kts | 192° |
| 2026-05-07 10:44 | 47.72216 | 14.32955 | 38020 ft | 427 kts | 192° |
| 2026-05-07 10:45 | 47.66350 | 14.31511 | 38013 ft | 426 kts | 192° |
| 2026-05-07 10:45 | 47.60499 | 14.30080 | 38019 ft | 426 kts | 192° |
| 2026-05-07 10:46 | 47.54653 | 14.28645 | 38023 ft | 425 kts | 193° |
| 2026-05-07 10:46 | 47.48823 | 14.27214 | 38015 ft | 424 kts | 193° |
| 2026-05-07 10:47 | 47.43027 | 14.25791 | 38006 ft | 423 kts | 193° |
| 2026-05-07 10:47 | 47.37229 | 14.24381 | 38004 ft | 422 kts | 193° |
| 2026-05-07 10:48 | 47.31441 | 14.22971 | 38007 ft | 421 kts | 193° |
| 2026-05-07 10:48 | 47.25660 | 14.21567 | 37996 ft | 421 kts | 193° |
| 2026-05-07 10:49 | 47.19898 | 14.20180 | 37986 ft | 420 kts | 193° |
| 2026-05-07 10:49 | 47.14123 | 14.18790 | 37977 ft | 420 kts | 193° |
| 2026-05-07 10:50 | 47.08344 | 14.17405 | 37973 ft | 421 kts | 193° |
| 2026-05-07 10:50 | 47.05454 | 14.16709 | 37726 ft | 422 kts | 194° |
| 2026-05-07 10:50 | 47.02568 | 14.16015 | 37426 ft | 419 kts | 194° |
| 2026-05-07 10:51 | 46.99713 | 14.15330 | 37155 ft | 412 kts | 194° |
| 2026-05-07 10:51 | 46.96909 | 14.14662 | 36810 ft | 406 kts | 194° |
| 2026-05-07 10:51 | 46.94134 | 14.13999 | 36389 ft | 402 kts | 194° |
| 2026-05-07 10:51 | 46.91380 | 14.13339 | 36001 ft | 399 kts | 194° |
| 2026-05-07 10:52 | 46.88658 | 14.12685 | 35619 ft | 395 kts | 194° |
| 2026-05-07 10:52 | 46.85956 | 14.12038 | 35244 ft | 391 kts | 194° |
| 2026-05-07 10:52 | 46.83284 | 14.11400 | 34871 ft | 387 kts | 195° |
| 2026-05-07 10:52 | 46.80636 | 14.10769 | 34495 ft | 383 kts | 195° |
| 2026-05-07 10:53 | 46.78052 | 14.10155 | 34138 ft | 379 kts | 195° |
| 2026-05-07 10:53 | 46.75425 | 14.09531 | 33748 ft | 375 kts | 195° |
| 2026-05-07 10:53 | 46.72860 | 14.08923 | 33335 ft | 372 kts | 195° |
| 2026-05-07 10:53 | 46.70347 | 14.08327 | 32933 ft | 370 kts | 195° |
| 2026-05-07 10:54 | 46.67818 | 14.07727 | 32533 ft | 367 kts | 195° |
| 2026-05-07 10:54 | 46.65300 | 14.07133 | 32138 ft | 365 kts | 195° |
| 2026-05-07 10:54 | 46.62798 | 14.06544 | 31749 ft | 363 kts | 195° |
| 2026-05-07 10:54 | 46.60277 | 14.05951 | 31359 ft | 361 kts | 194° |
| 2026-05-07 10:55 | 46.57839 | 14.05375 | 30988 ft | 359 kts | 194° |
| 2026-05-07 10:55 | 46.55378 | 14.04789 | 30619 ft | 358 kts | 194° |
| 2026-05-07 10:55 | 46.52927 | 14.04205 | 30254 ft | 356 kts | 194° |
| 2026-05-07 10:55 | 46.50482 | 14.03628 | 29856 ft | 356 kts | 193° |
| 2026-05-07 10:56 | 46.48004 | 14.03382 | 29425 ft | 359 kts | 184° |
| 2026-05-07 10:56 | 46.45503 | 14.03609 | 29002 ft | 359 kts | 181° |
| 2026-05-07 10:56 | 46.43014 | 14.03869 | 28586 ft | 357 kts | 181° |
| 2026-05-07 10:56 | 46.40536 | 14.04125 | 28175 ft | 356 kts | 181° |
| 2026-05-07 10:57 | 46.38068 | 14.04378 | 27783 ft | 355 kts | 181° |
| 2026-05-07 10:57 | 46.35610 | 14.04626 | 27388 ft | 353 kts | 181° |
| 2026-05-07 10:57 | 46.33164 | 14.04873 | 26995 ft | 351 kts | 181° |
| 2026-05-07 10:57 | 46.30740 | 14.05119 | 26610 ft | 348 kts | 181° |
| 2026-05-07 10:58 | 46.28333 | 14.05363 | 26233 ft | 346 kts | 181° |
| 2026-05-07 10:58 | 46.25940 | 14.05601 | 25857 ft | 344 kts | 181° |
| 2026-05-07 10:58 | 46.23563 | 14.05840 | 25489 ft | 341 kts | 181° |
| 2026-05-07 10:58 | 46.21199 | 14.06077 | 25117 ft | 339 kts | 181° |
| 2026-05-07 10:59 | 46.18853 | 14.06314 | 24758 ft | 336 kts | 181° |
| 2026-05-07 10:59 | 46.16533 | 14.06551 | 24408 ft | 333 kts | 181° |
| 2026-05-07 10:59 | 46.14227 | 14.06782 | 24055 ft | 331 kts | 180° |
| 2026-05-07 10:59 | 46.11935 | 14.07009 | 23697 ft | 329 kts | 181° |
| 2026-05-07 11:00 | 46.09655 | 14.07233 | 23319 ft | 327 kts | 181° |
| 2026-05-07 11:00 | 46.07397 | 14.07458 | 22910 ft | 325 kts | 181° |
| 2026-05-07 11:00 | 46.05145 | 14.07683 | 22538 ft | 323 kts | 180° |
| 2026-05-07 11:00 | 46.02908 | 14.07911 | 22153 ft | 322 kts | 181° |
| 2026-05-07 11:01 | 46.00674 | 14.08139 | 21779 ft | 321 kts | 181° |
| 2026-05-07 11:01 | 45.98452 | 14.08363 | 21421 ft | 319 kts | 180° |
| 2026-05-07 11:01 | 45.96245 | 14.08585 | 21065 ft | 318 kts | 180° |
| 2026-05-07 11:01 | 45.94045 | 14.08808 | 20701 ft | 316 kts | 180° |
| 2026-05-07 11:02 | 45.91855 | 14.09028 | 20355 ft | 314 kts | 180° |
| 2026-05-07 11:02 | 45.89678 | 14.09243 | 20009 ft | 313 kts | 180° |
| 2026-05-07 11:02 | 45.87507 | 14.09456 | 19708 ft | 312 kts | 181° |
| 2026-05-07 11:02 | 45.85318 | 14.09667 | 19448 ft | 327 kts | 181° |
| 2026-05-07 11:03 | 45.82984 | 14.09885 | 19180 ft | 342 kts | 180° |
| 2026-05-07 11:03 | 45.80599 | 14.10117 | 18918 ft | 345 kts | 180° |
| 2026-05-07 11:03 | 45.78197 | 14.10361 | 18659 ft | 345 kts | 180° |
| 2026-05-07 11:03 | 45.75804 | 14.10605 | 18404 ft | 345 kts | 180° |
| 2026-05-07 11:04 | 45.73444 | 14.10843 | 18127 ft | 343 kts | 180° |
| 2026-05-07 11:04 | 45.71070 | 14.11082 | 17832 ft | 342 kts | 180° |
| 2026-05-07 11:04 | 45.68699 | 14.11317 | 17553 ft | 341 kts | 180° |
| 2026-05-07 11:04 | 45.66342 | 14.11550 | 17249 ft | 339 kts | 180° |
| 2026-05-07 11:05 | 45.63998 | 14.11782 | 16959 ft | 337 kts | 180° |
| 2026-05-07 11:05 | 45.61668 | 14.12012 | 16674 ft | 335 kts | 180° |
| 2026-05-07 11:05 | 45.59314 | 14.12247 | 16386 ft | 334 kts | 180° |
| 2026-05-07 11:05 | 45.56999 | 14.12477 | 16085 ft | 333 kts | 179° |
| 2026-05-07 11:06 | 45.54699 | 14.12704 | 15785 ft | 331 kts | 179° |
| 2026-05-07 11:06 | 45.52436 | 14.12923 | 15485 ft | 329 kts | 179° |
| 2026-05-07 11:06 | 45.50123 | 14.13146 | 15189 ft | 328 kts | 179° |
| 2026-05-07 11:06 | 45.47895 | 14.13058 | 14898 ft | 323 kts | 191° |
| 2026-05-07 11:07 | 45.45748 | 14.12212 | 14598 ft | 319 kts | 204° |
| 2026-05-07 11:07 | 45.43731 | 14.10904 | 14327 ft | 318 kts | 205° |
| 2026-05-07 11:07 | 45.41726 | 14.09586 | 14037 ft | 317 kts | 205° |
| 2026-05-07 11:07 | 45.39725 | 14.08271 | 13747 ft | 317 kts | 205° |
| 2026-05-07 11:08 | 45.37725 | 14.06960 | 13419 ft | 315 kts | 205° |
| 2026-05-07 11:08 | 45.35735 | 14.05658 | 13067 ft | 314 kts | 205° |
| 2026-05-07 11:08 | 45.33758 | 14.04366 | 12693 ft | 312 kts | 205° |
| 2026-05-07 11:08 | 45.31790 | 14.03084 | 12330 ft | 310 kts | 205° |
| 2026-05-07 11:09 | 45.29832 | 14.01812 | 11975 ft | 309 kts | 205° |
| 2026-05-07 11:09 | 45.27882 | 14.00547 | 11624 ft | 308 kts | 205° |
| 2026-05-07 11:09 | 45.25941 | 13.99286 | 11271 ft | 305 kts | 205° |
| 2026-05-07 11:09 | 45.24028 | 13.98042 | 10926 ft | 299 kts | 205° |
| 2026-05-07 11:10 | 45.22149 | 13.96821 | 10584 ft | 295 kts | 205° |
| 2026-05-07 11:10 | 45.20300 | 13.95622 | 10249 ft | 290 kts | 205° |
| 2026-05-07 11:10 | 45.18475 | 13.94437 | 9914 ft | 287 kts | 205° |
| 2026-05-07 11:10 | 45.16670 | 13.93265 | 9547 ft | 284 kts | 205° |
| 2026-05-07 11:11 | 45.14887 | 13.92108 | 9181 ft | 281 kts | 205° |
| 2026-05-07 11:11 | 45.13119 | 13.90960 | 8817 ft | 278 kts | 205° |
| 2026-05-07 11:11 | 45.11369 | 13.89826 | 8461 ft | 276 kts | 205° |
| 2026-05-07 11:11 | 45.09630 | 13.88700 | 8122 ft | 273 kts | 206° |
| 2026-05-07 11:12 | 45.08100 | 13.87252 | 7855 ft | 259 kts | 223° |
| 2026-05-07 11:12 | 45.07037 | 13.85272 | 7552 ft | 251 kts | 240° |
| 2026-05-07 11:12 | 45.06419 | 13.82982 | 7190 ft | 248 kts | 247° |
| 2026-05-07 11:12 | 45.05770 | 13.80753 | 6816 ft | 243 kts | 242° |
| 2026-05-07 11:13 | 45.04985 | 13.78666 | 6456 ft | 239 kts | 237° |
| 2026-05-07 11:13 | 45.04083 | 13.76717 | 6078 ft | 235 kts | 232° |
| 2026-05-07 11:13 | 45.03082 | 13.74903 | 5693 ft | 232 kts | 229° |
| 2026-05-07 11:13 | 45.02092 | 13.73133 | 5308 ft | 228 kts | 231° |
| 2026-05-07 11:14 | 45.01328 | 13.71191 | 4934 ft | 224 kts | 243° |
| 2026-05-07 11:14 | 45.00784 | 13.69174 | 4590 ft | 215 kts | 248° |
| 2026-05-07 11:14 | 45.00240 | 13.67288 | 4283 ft | 200 kts | 233° |
| 2026-05-07 11:14 | 44.99280 | 13.65968 | 3979 ft | 192 kts | 208° |
| 2026-05-07 11:15 | 44.98021 | 13.65342 | 3631 ft | 194 kts | 195° |
| 2026-05-07 11:15 | 44.96703 | 13.64854 | 3280 ft | 197 kts | 195° |
| 2026-05-07 11:15 | 44.95364 | 13.64357 | 2941 ft | 199 kts | 194° |
| 2026-05-07 11:15 | 44.94035 | 13.63861 | 2691 ft | 196 kts | 195° |
| 2026-05-07 11:16 | 44.92729 | 13.63376 | 2498 ft | 190 kts | 194° |
| 2026-05-07 11:16 | 44.91490 | 13.62918 | 2496 ft | 179 kts | 194° |
| 2026-05-07 11:16 | 44.90274 | 13.62782 | 2497 ft | 177 kts | 168° |
| 2026-05-07 11:16 | 44.89218 | 13.63664 | 2500 ft | 183 kts | 133° |
| 2026-05-07 11:17 | 44.88740 | 13.65341 | 2498 ft | 193 kts | 96° |
| 2026-05-07 11:17 | 44.88816 | 13.67263 | 2503 ft | 196 kts | 91° |
| 2026-05-07 11:17 | 44.88870 | 13.69192 | 2504 ft | 197 kts | 93° |
| 2026-05-07 11:17 | 44.88906 | 13.71121 | 2491 ft | 197 kts | 94° |
| 2026-05-07 11:18 | 44.88924 | 13.73005 | 2386 ft | 186 kts | 94° |
| 2026-05-07 11:18 | 44.88948 | 13.74772 | 2266 ft | 176 kts | 94° |
| 2026-05-07 11:18 | 44.88996 | 13.76462 | 2086 ft | 168 kts | 93° |
| 2026-05-07 11:18 | 44.89046 | 13.78043 | 1929 ft | 156 kts | 94° |
| 2026-05-07 11:19 | 44.89074 | 13.79517 | 1769 ft | 147 kts | 95° |
| 2026-05-07 11:19 | 44.89106 | 13.80934 | 1576 ft | 143 kts | 94° |
| 2026-05-07 11:19 | 44.89133 | 13.81884 | 1395 ft | 143 kts | 95° |
| 2026-05-07 11:19 | 44.89169 | 13.83263 | 1205 ft | 141 kts | 95° |
| 2026-05-07 11:20 | 44.89183 | 13.84634 | 995 ft | 139 kts | 96° |
| 2026-05-07 11:20 | 44.89206 | 13.85965 | 806 ft | 138 kts | 92° |
| 2026-05-07 11:20 | 44.89247 | 13.87332 | 622 ft | 142 kts | 94° |
| 2026-05-07 11:20 | 44.89276 | 13.88709 | 421 ft | 141 kts | 93° |
| 2026-05-07 11:21 | 44.89310 | 13.90073 | 242 ft | 139 kts | 93° |
| 2026-05-07 11:21 | 44.89326 | 13.91382 | 211 ft | 117 kts | 85° |
| 2026-05-07 11:21 | 44.89353 | 13.92333 | 234 ft | 77 kts | 88° |
| 2026-05-07 11:21 | 44.89369 | 13.92800 | 247 ft | 22 kts | 82° |
| 2026-05-07 11:22 | 44.89435 | 13.92863 | 249 ft | 1 kts | 8° |
| 2026-05-07 11:22 | 44.89461 | 13.92866 | 250 ft | 6 kts | 2° |
| 2026-05-07 11:22 | 44.89515 | 13.92865 | 250 ft | 11 kts | 358° |
| 2026-05-07 11:22 | 44.89581 | 13.92818 | 249 ft | 12 kts | 293° |
| 2026-05-07 11:23 | 44.89585 | 13.92681 | 245 ft | 16 kts | 266° |
| 2026-05-07 11:23 | 44.89582 | 13.92569 | 242 ft | 12 kts | 268° |
| 2026-05-07 11:23 | 44.89606 | 13.92460 | 239 ft | 12 kts | 342° |
| 2026-05-07 11:23 | 44.89691 | 13.92449 | 239 ft | 13 kts | 2° |
| 2026-05-07 11:24 | 44.89705 | 13.92450 | 239 ft | 0 kts | 3° |
| 2026-05-07 11:24 | 44.89706 | 13.92450 | 239 ft | 0 kts | 3° |
| 2026-05-07 11:24 | 44.89713 | 13.92450 | 239 ft | 2 kts | 1° |
| 2026-05-07 11:24 | 44.89728 | 13.92450 | 239 ft | 3 kts | 360° |
| 2026-05-07 11:25 | 44.89752 | 13.92449 | 239 ft | 4 kts | 357° |
| 2026-05-07 11:25 | 44.89782 | 13.92455 | 239 ft | 5 kts | 30° |
| 2026-05-07 11:25 | 44.89800 | 13.92482 | 240 ft | 3 kts | 47° |
| 2026-05-07 11:25 | 44.89811 | 13.92499 | 240 ft | 1 kts | 49° |
| 2026-05-07 11:26 | 44.89814 | 13.92504 | 240 ft | 0 kts | 49° |
| 2026-05-07 11:26 | 44.89814 | 13.92505 | 240 ft | 0 kts | 49° |
| 2026-05-07 11:26 | 44.89815 | 13.92505 | 240 ft | 0 kts | 49° |
| 2026-05-07 11:26 | 44.89817 | 13.92510 | 240 ft | 0 kts | 49° |
| 2026-05-07 11:27 | 44.89819 | 13.92512 | 240 ft | 0 kts | 49° |
| 2026-05-07 11:27 | 44.89821 | 13.92515 | 241 ft | 0 kts | 49° |